Dubbo, Australia
Current Conditions -  °F | °C
As of 4:00 AM on Sunday 26 Oct 2014 (Local Time) from YSDU Reporting Station
Clear Clear  
Wind Chill: 66°   Ceiling: Unl
Heat Index: 66°   Visibility: 6mi
Dew Point: 46°   Wind: 0mph
Humidity: 49%   Direction: NA
Pressure: 29.85"   Gusts: NA
Location:  32.26°S, 148.6°E
Report Text: YSDU 251700Z AUTO 00000KT 9999 // NCD 19/08 Q1011
Loading
Personal Weather Stations






























Interactive Weather Map
Tropical Storm Tracking
New forecast layout! Learn more

10-Day Weather Forecast

Advertisements
Track Severe Weather on mobile